Nearby METAR Reports

 

KDFW - Dallas/Ft Worth, Texas, USA
Distance from station: ESE 9mi, 14km
Updated: 10/23/2018 3:53pm
Partly cloudy
Partly cloudy
 Wind from NE
Wind: NE 8 mph , 13 km/h
Temperature: 72°F , 22°C
Dew Point: 43°F , 6°C
Humidity: 36%
Barometer: 30.14 inHg , 1020.7 hPa
Clouds: Partly cloudy
Visibility: 10 miles , 16 km
Cloud details: Few Clouds 14000 ft
Partly cloudy 25000 ft
2018/10/23 20:53 KDFW 232053Z 05007KT 10SM FEW140 SCT250 22/06 A3014 RMK AO2 SLP202 T02170056 56021
KAFW - Ft Worth/Alliance, Texas, USA
Distance from station: W 10mi, 16km
Updated: 10/23/2018 3:53pm
Mostly cloudy
Mostly cloudy
 Wind from NE
Wind: NE 9 mph , 15 km/h
Temperature: 72°F , 22°C
Dew Point: 45°F , 7°C
Humidity: 38%
Barometer: 30.16 inHg , 1021.3 hPa
Clouds: Mostly cloudy
Visibility: 10 miles , 16 km
Cloud details: Partly cloudy 25000 ft
Mostly cloudy 30000 ft
2018/10/23 20:53 KAFW 232053Z 04008KT 10SM SCT250 BKN300 22/07 A3016 RMK AO2 SLP206 T02170067 56019
 
KDTO - Denton, Texas, USA
Distance from station: NNW 16mi, 26km
Updated: 10/23/2018 3:53pm
Clear
Clear
 Wind from SE
Wind: SE 8 mph , 13 km/h
Temperature: 72°F , 22°C
Dew Point: 43°F , 6°C
Humidity: 36%
Barometer: 30.16 inHg , 1021.3 hPa
Clouds: Clear
Visibility: 10 miles , 16 km
2018/10/23 20:53 KDTO 232053Z 13007KT 10SM CLR 22/06 A3016 RMK AO2 SLP208 T02170061 56017
KFTW - Fort Worth/Meacham, Texas, USA
Distance from station: SW 16mi, 26km
Updated: 10/23/2018 3:53pm
Clear
Clear
 Wind from NE
Wind: NE 8 mph , 13 km/h
Temperature: 70°F , 21°C
Dew Point: 41°F , 5°C
Humidity: 35%
Barometer: 30.15 inHg , 1021 hPa
Clouds: Clear
Visibility: 10 miles , 16 km
2018/10/23 20:53 KFTW 232053Z 04007KT 10SM CLR 21/05 A3015 RMK AO2 SLP203 T02110050 56021
 
KADS - Dallas/Addison, Texas, USA
Distance from station: E 19mi, 31km
Updated: 10/23/2018 3:55pm
Clear
Clear
 Wind from NE
Wind: NE 8 mph , 13 km/h
Temperature: 72°F , 22°C
Dew Point: 39°F , 4°C
Humidity: 31%
Barometer: 30.17 inHg , 1021.7 hPa
Clouds: Clear
Visibility: 10 miles , 16 km
2018/10/23 20:55 KADS 232055Z 05007KT 10SM SKC 22/04 A3017
KDAL - Dallas/Love Field, Texas, USA
Distance from station: ESE 19mi, 31km
Updated: 10/23/2018 3:53pm
Mostly cloudy
Mostly cloudy
 Wind from NE
Wind: NE 8 mph , 13 km/h
Temperature: 72°F , 22°C
Dew Point: 43°F , 6°C
Humidity: 36%
Barometer: 30.15 inHg , 1021 hPa
Clouds: Mostly cloudy
Visibility: 10 miles , 16 km
Cloud details: Few Clouds 10000 ft
Few Clouds 16000 ft
Mostly cloudy 25000 ft
2018/10/23 20:53 KDAL 232053Z 05007KT 10SM FEW100 FEW160 BKN250 22/06 A3015 RMK AO2 SLP207 T02220061 56022
 
KGPM - Grand Prairie, Texas, USA
Distance from station: SSE 19mi, 31km
Updated: 10/23/2018 3:50pm
Clear
Clear
 Wind from NE
Wind: NE 9 mph , 15 km/h
Temperature: 70°F , 21°C
Dew Point: 39°F , 4°C
Humidity: 33%
Barometer: 30.16 inHg , 1021.3 hPa
Clouds: Clear
Visibility: 10 miles , 16 km
2018/10/23 20:50 KGPM 232050Z 05008KT 10SM SKC 21/04 A3016
KGKY - Arlington, Texas, USA
Distance from station: S 21mi, 34km
Updated: 10/23/2018 3:53pm
Clear
Clear
 Wind from ENE
Wind: ENE 9 mph , 15 km/h
Temperature: 72°F , 22°C
Dew Point: 43°F , 6°C
Humidity: 36%
Barometer: 30.15 inHg , 1021 hPa
Clouds: Clear
Visibility: 10 miles , 16 km
2018/10/23 20:53 KGKY 232053Z 06008KT 10SM CLR 22/06 A3015 RMK AO2 SLP203 T02170061 56024
 
KNFW - Fort Worth NAS, Texas, USA
Distance from station: SW 21mi, 34km
Updated: 10/23/2018 3:52pm
Mostly cloudy
Mostly cloudy
 Wind from E
Wind: E 6 mph , 9 km/h
Temperature: 72°F , 22°C
Dew Point: 41°F , 5°C
Humidity: 33%
Barometer: 30.16 inHg , 1021.3 hPa
Clouds: Mostly cloudy
Visibility: 10 miles , 16 km
Cloud details: Few Clouds 10000 ft
Mostly cloudy 25000 ft
2018/10/23 20:52 KNFW 232052Z 08005KT 10SM FEW100 BKN250 22/05 A3016 RMK SLP195 T02220050 56019 $
KRBD - Dallas/Redbird, Texas, USA
Distance from station: SE 26mi, 41km
Updated: 10/23/2018 3:53pm
Clear
Clear
 Wind from E
Wind: E 13 mph , 20 km/h
Temperature: 70°F , 21°C
Dew Point: 39°F , 4°C
Humidity: 33%
Barometer: 30.14 inHg , 1020.7 hPa
Clouds: Clear
Visibility: 10 miles , 16 km
2018/10/23 20:53 KRBD 232053Z 08011KT 10SM CLR 21/04 A3014 RMK AO2 SLP204 T02110044 56023
 
KFWS - Fort Worth/Spinks, Texas, USA
Distance from station: SSW 29mi, 47km
Updated: 10/23/2018 3:50pm
Clear
Clear
 Wind from E
Wind: E 5 mph , 7 km/h
Temperature: 72°F , 22°C
Dew Point: 45°F , 7°C
Humidity: 38%
Barometer: 30.17 inHg , 1021.7 hPa
Clouds: Clear
Visibility: 10 miles , 16 km
2018/10/23 20:50 KFWS 232050Z 09004KT 10SM CLR 22/07 A3017
KLUD - Decatur, Texas, USA
Distance from station: NW 32mi, 51km
Updated: 10/23/2018 4:35pm
Clear
Clear
 Wind from calm
Wind: Calm
Temperature: 68°F , 20°C
Dew Point: 45°F , 7°C
Humidity: 43%
Barometer: 30.17 inHg , 1021.7 hPa
Clouds: Clear
Visibility: 10 miles , 16 km
2018/10/23 21:35 KLUD 232135Z AUTO 00000KT 10SM CLR 20/07 A3017 RMK AO2 T02000072
 
KTKI - McKinney, Texas, USA
Distance from station: ENE 36mi, 58km
Updated: 10/23/2018 3:53pm
Clear
Clear
 Wind from ENE
Wind: ENE 9 mph , 15 km/h
Temperature: 72°F , 22°C
Dew Point: 43°F , 6°C
Humidity: 36%
Barometer: 30.16 inHg , 1021.3 hPa
Clouds: Clear
Visibility: 10 miles , 16 km
2018/10/23 20:53 KTKI 232053Z 06008KT 10SM CLR 22/06 A3016 RMK AO2 SLP217 T02170061 56021
KLNC - Lancaster, Texas, USA
Distance from station: SE 36mi, 59km
Updated: 10/23/2018 4:35pm
Clear
Clear
 Wind from ENE
Wind: ENE 7 mph , 11 km/h
Temperature: 70°F , 21°C
Dew Point: 43°F , 6°C
Humidity: 38%
Barometer: 30.16 inHg , 1021.3 hPa
Clouds: Clear
Visibility: 10 miles , 16 km
2018/10/23 21:35 KLNC 232135Z AUTO 07006KT 10SM CLR 21/06 A3016 RMK AO2 T02100060
 
KJWY - Midlothian/Wax, Texas, USA
Distance from station: SSE 38mi, 62km
Updated: 10/23/2018 4:35pm
Clear
Clear
 Wind from NE
Wind: NE 5 mph , 7 km/h
Temperature: 70°F , 21°C
Dew Point: 46°F , 8°C
Humidity: 43%
Barometer: 30.16 inHg , 1021.3 hPa
Clouds: Clear
Visibility: 10 miles , 16 km
2018/10/23 21:35 KJWY 232135Z AUTO 05004KT 10SM CLR 21/08 A3016 RMK AO2 T02130080
KHQZ - Mesquite, Texas, USA
Distance from station: ESE 39mi, 62km
Updated: 10/23/2018 3:50pm
Clear
Clear
 Wind from NE
Wind: NE 5 mph , 7 km/h
Temperature: 70°F , 21°C
Dew Point: 37°F , 3°C
Humidity: 31%
Barometer: 30.16 inHg , 1021.3 hPa
Clouds: Clear
Visibility: 10 miles , 16 km
2018/10/23 20:50 KHQZ 232050Z 05004KT 10SM CLR 21/03 A3016
 
KF46 - Rockwall, Texas, USA
Distance from station: E 41mi, 67km
Updated: 10/23/2018 4:35pm
Clear
Clear
 Wind from NE
Wind: NE 10 mph , 17 km/h
Temperature: 73°F , 23°C
Dew Point: 45°F , 7°C
Humidity: 36%
Barometer: 30.16 inHg , 1021.3 hPa
Clouds: Clear
Visibility: 10 miles , 16 km
2018/10/23 21:35 KF46 232135Z AUTO 05009KT 10SM CLR 23/07 A3016 RMK AO2 T02250074
KXBP - Bridgeport, Texas, USA
Distance from station: WNW 43mi, 68km
Updated: 10/23/2018 4:35pm
Clear
Clear
 Wind from E
Wind: E 6 mph , 9 km/h
Temperature: 72°F , 22°C
Dew Point: 43°F , 6°C
Humidity: 36%
Barometer: 30.18 inHg , 1022 hPa
Clouds: Clear
Visibility: 10 miles , 16 km
2018/10/23 21:35 KXBP 232135Z AUTO 08005KT 10SM CLR 22/06 A3018 RMK AO2 T02150056 PNO
 
KCPT - Cleburne, Texas, USA
Distance from station: SSW 46mi, 74km
Updated: 10/23/2018 4:35pm
Clear
Clear
 Wind from ENE
Wind: ENE 9 mph , 15 km/h
Temperature: 70°F , 21°C
Dew Point: 41°F , 5°C
Humidity: 35%
Barometer: 30.16 inHg , 1021.3 hPa
Clouds: Clear
Visibility: 10 miles , 16 km
2018/10/23 21:35 KCPT 232135Z AUTO 06008KT 10SM CLR 21/05 A3016 RMK AO2
KGLE - Gainesville, Texas, USA
Distance from station: N 47mi, 76km
Updated: 10/23/2018 4:35pm
Clear
Clear
 Wind from E
Wind: E 7 mph , 11 km/h
Temperature: 68°F , 20°C
Dew Point: 39°F , 4°C
Humidity: 35%
Barometer: 30.19 inHg , 1022.4 hPa
Clouds: Clear
Visibility: 10 miles , 16 km
2018/10/23 21:35 KGLE 232135Z AUTO 09006KT 10SM CLR 20/04 A3019 RMK AO2 T02040039